createdAt,value
2023-02-20T00:00:40.382Z,21.86
2023-02-20T00:03:43.192Z,21.82
2023-02-20T00:06:46.476Z,21.87
2023-02-20T00:09:49.254Z,21.86
2023-02-20T00:12:53.822Z,21.86
2023-02-20T00:15:56.992Z,21.86
2023-02-20T00:18:59.890Z,21.87
2023-02-20T00:22:02.688Z,21.86
2023-02-20T00:25:05.618Z,21.88
2023-02-20T00:28:09.831Z,21.85
2023-02-20T00:31:14.285Z,21.86
2023-02-20T00:34:17.093Z,21.90
2023-02-20T00:37:19.920Z,21.83
2023-02-20T00:40:23.723Z,21.86
2023-02-20T00:43:28.944Z,21.89
2023-02-20T00:46:31.764Z,21.87
2023-02-20T00:49:34.608Z,21.91
2023-02-20T00:52:39.584Z,21.85
2023-02-20T00:55:42.446Z,21.83
2023-02-20T00:58:46.731Z,21.84
2023-02-20T01:01:49.586Z,21.80
2023-02-20T01:04:52.466Z,21.81
2023-02-20T01:07:55.392Z,21.82
2023-02-20T01:10:58.234Z,21.92
2023-02-20T01:14:02.486Z,21.87
2023-02-20T01:17:05.306Z,21.97
2023-02-20T01:20:09.197Z,21.94
2023-02-20T01:23:12.025Z,21.91
2023-02-20T01:26:15.101Z,21.95
2023-02-20T01:29:19.409Z,21.93
2023-02-20T01:32:22.274Z,21.95
2023-02-20T01:35:25.205Z,21.97
2023-02-20T01:38:28.009Z,21.97
2023-02-20T01:41:30.849Z,21.94
2023-02-20T01:44:35.904Z,21.95
2023-02-20T01:47:38.708Z,21.92
2023-02-20T01:50:43.542Z,21.93
2023-02-20T01:53:46.376Z,21.95
2023-02-20T01:56:49.881Z,21.92
2023-02-20T01:59:57.249Z,21.88
2023-02-20T02:03:01.770Z,21.96
2023-02-20T02:06:06.144Z,21.92
2023-02-20T02:09:14.261Z,21.85
2023-02-20T02:12:17.237Z,21.81
2023-02-20T02:15:22.410Z,21.78
2023-02-20T02:18:36.763Z,21.69
2023-02-20T02:21:51.890Z,21.63
2023-02-20T02:25:05.933Z,21.56
2023-02-20T02:28:27.220Z,21.52
2023-02-20T02:31:55.036Z,21.55
2023-02-20T02:35:10.135Z,21.43
2023-02-20T02:38:19.415Z,21.34
2023-02-20T02:41:24.632Z,21.30
2023-02-20T02:44:31.467Z,21.32
2023-02-20T02:47:36.700Z,21.23
2023-02-20T02:50:42.111Z,21.24
2023-02-20T02:54:05.333Z,21.19
2023-02-20T02:57:19.563Z,21.15
2023-02-20T03:00:24.529Z,21.12
2023-02-20T03:03:29.605Z,21.08
2023-02-20T03:06:35.558Z,21.03
2023-02-20T03:09:43.428Z,21.00
2023-02-20T03:12:48.673Z,20.94
2023-02-20T03:15:52.475Z,20.93
2023-02-20T03:18:57.238Z,20.88
2023-02-20T03:22:02.148Z,20.84
2023-02-20T03:25:09.381Z,20.77
2023-02-20T03:28:13.384Z,20.71
2023-02-20T03:31:18.538Z,20.71
2023-02-20T03:34:41.404Z,20.62
2023-02-20T03:38:03.976Z,20.63
2023-02-20T03:41:26.550Z,20.56
2023-02-20T03:44:29.554Z,20.55
2023-02-20T03:47:35.517Z,20.49
2023-02-20T03:50:38.502Z,20.44
2023-02-20T03:53:42.238Z,20.44
2023-02-20T03:56:53.153Z,20.42
2023-02-20T03:59:58.487Z,20.40
2023-02-20T04:03:03.755Z,20.48
2023-02-20T04:06:08.612Z,20.58
2023-02-20T04:09:14.146Z,20.58
2023-02-20T04:12:23.388Z,20.71
2023-02-20T04:15:26.749Z,20.77
2023-02-20T04:18:30.461Z,20.85
2023-02-20T04:21:36.749Z,20.96
2023-02-20T04:24:43.352Z,20.95
2023-02-20T04:27:47.778Z,21.10
2023-02-20T04:30:51.116Z,21.12
2023-02-20T04:33:53.973Z,21.15
2023-02-20T04:37:05.980Z,21.18
2023-02-20T04:40:09.936Z,21.15
2023-02-20T04:43:14.136Z,21.17
2023-02-20T04:46:17.425Z,21.22
2023-02-20T04:49:20.296Z,21.22
2023-02-20T04:52:24.639Z,21.23
2023-02-20T04:55:27.866Z,21.25
2023-02-20T04:58:34.159Z,21.26
2023-02-20T05:01:37.190Z,21.33
2023-02-20T05:04:40.117Z,21.36
2023-02-20T05:07:42.996Z,21.30
2023-02-20T05:10:47.770Z,21.33
2023-02-20T05:13:51.965Z,21.36
2023-02-20T05:16:54.906Z,21.39
2023-02-20T05:19:57.656Z,21.43
2023-02-20T05:22:59.483Z,21.38
2023-02-20T05:26:02.345Z,21.40
2023-02-20T05:29:06.579Z,21.44
2023-02-20T05:32:09.503Z,21.46
2023-02-20T05:35:12.323Z,21.44
2023-02-20T05:38:18.086Z,21.49
2023-02-20T05:41:21.079Z,21.49
2023-02-20T05:44:25.253Z,21.51
2023-02-20T05:47:28.122Z,21.48
2023-02-20T05:50:30.956Z,21.49
2023-02-20T05:53:33.920Z,21.52
2023-02-20T05:56:36.789Z,21.56
2023-02-20T05:59:41.087Z,21.52
2023-02-20T06:02:43.876Z,21.54
2023-02-20T06:05:46.667Z,21.53
2023-02-20T06:08:49.718Z,21.50
2023-02-20T06:11:53.389Z,21.45
2023-02-20T06:14:57.629Z,21.40
2023-02-20T06:18:00.592Z,21.40
2023-02-20T06:21:03.360Z,21.32
2023-02-20T06:24:06.456Z,21.29
2023-02-20T06:27:09.474Z,21.26
2023-02-20T06:30:14.435Z,21.22
2023-02-20T06:33:17.288Z,21.20
2023-02-20T06:36:21.697Z,21.16
2023-02-20T06:39:24.499Z,21.14
2023-02-20T06:42:27.266Z,21.08
2023-02-20T06:45:31.460Z,21.11
2023-02-20T06:48:34.283Z,21.07
2023-02-20T06:51:37.091Z,21.04
2023-02-20T06:54:40.359Z,21.04
2023-02-20T06:57:43.417Z,21.01
2023-02-20T07:00:47.698Z,21.02
2023-02-20T07:03:51.164Z,20.96
2023-02-20T07:06:53.970Z,20.88
2023-02-20T07:10:02.383Z,20.89
2023-02-20T07:13:06.327Z,20.80
2023-02-20T07:16:10.994Z,20.75
2023-02-20T07:19:14.293Z,20.74
2023-02-20T07:22:17.153Z,20.66
2023-02-20T07:25:20.036Z,20.71
2023-02-20T07:28:22.980Z,20.69
2023-02-20T07:31:27.477Z,20.61
2023-02-20T07:34:30.305Z,20.60
2023-02-20T07:37:33.181Z,20.58
2023-02-20T07:40:36.920Z,20.58
2023-02-20T07:43:41.149Z,20.53
2023-02-20T07:46:45.312Z,20.53
2023-02-20T07:49:48.152Z,20.51
2023-02-20T07:52:50.966Z,20.50
2023-02-20T07:55:53.829Z,20.45
2023-02-20T07:58:56.603Z,20.43
2023-02-20T08:02:00.780Z,20.38
2023-02-20T08:05:03.643Z,20.36
2023-02-20T08:08:07.685Z,20.34
2023-02-20T08:11:10.704Z,20.31
2023-02-20T08:14:14.494Z,20.32
2023-02-20T08:17:18.830Z,20.26
2023-02-20T08:20:22.128Z,20.26
2023-02-20T08:23:26.031Z,20.24
2023-02-20T08:26:28.904Z,20.23
2023-02-20T08:29:31.754Z,20.19
2023-02-20T08:32:36.002Z,20.18
2023-02-20T08:35:38.910Z,20.19
2023-02-20T08:38:41.752Z,20.16
2023-02-20T08:41:44.736Z,20.14
2023-02-20T08:44:47.532Z,20.12
2023-02-20T08:47:52.042Z,20.07
2023-02-20T08:50:54.914Z,20.10
2023-02-20T08:53:57.738Z,20.09
2023-02-20T08:57:00.610Z,20.06
2023-02-20T09:00:03.484Z,20.05
2023-02-20T09:03:08.771Z,20.12
2023-02-20T09:06:11.852Z,20.23
2023-02-20T09:09:14.842Z,20.35
2023-02-20T09:12:18.274Z,20.43
2023-02-20T09:15:21.608Z,20.53
2023-02-20T09:18:25.791Z,20.61
2023-02-20T09:21:29.418Z,20.68
2023-02-20T09:24:34.488Z,20.72
2023-02-20T09:27:37.414Z,20.83
2023-02-20T09:30:40.497Z,20.90
2023-02-20T09:33:51.055Z,20.94
2023-02-20T09:36:55.535Z,21.00
2023-02-20T09:39:58.467Z,20.98
2023-02-20T09:43:13.666Z,21.02
2023-02-20T09:46:17.882Z,21.04
2023-02-20T09:49:25.173Z,21.04
2023-02-20T09:52:28.454Z,21.11
2023-02-20T09:55:35.323Z,21.11
2023-02-20T09:58:42.726Z,21.11
2023-02-20T10:01:54.264Z,21.15
2023-02-20T10:05:02.689Z,21.15
2023-02-20T10:08:05.716Z,21.16
2023-02-20T10:11:10.161Z,21.19
2023-02-20T10:14:23.825Z,21.24
2023-02-20T10:17:34.385Z,21.23
2023-02-20T10:20:42.734Z,21.26
2023-02-20T10:23:56.734Z,21.26
2023-02-20T10:27:15.959Z,21.30
2023-02-20T10:30:21.648Z,21.31
2023-02-20T10:33:27.752Z,21.31
2023-02-20T10:36:37.479Z,21.37
2023-02-20T10:39:42.381Z,21.33
2023-02-20T10:42:48.882Z,21.32
2023-02-20T10:45:55.980Z,21.36
2023-02-20T10:49:00.216Z,21.33
2023-02-20T10:52:06.677Z,21.31
2023-02-20T10:55:12.408Z,21.33
2023-02-20T10:58:17.618Z,21.36
2023-02-20T11:01:22.317Z,21.36
2023-02-20T11:04:27.120Z,21.40
2023-02-20T11:07:31.578Z,21.41
2023-02-20T11:10:35.480Z,20.62
2023-02-20T11:13:38.458Z,21.14
2023-02-20T11:16:44.077Z,21.20
2023-02-20T11:19:50.641Z,21.15
2023-02-20T11:22:54.884Z,21.12
2023-02-20T11:26:13.693Z,21.10
2023-02-20T11:29:18.053Z,21.00
2023-02-20T11:32:29.798Z,20.97
2023-02-20T11:35:35.328Z,20.91
2023-02-20T11:38:39.873Z,20.88
2023-02-20T11:41:42.740Z,20.84
2023-02-20T11:44:45.701Z,20.84
2023-02-20T11:48:07.089Z,20.84
2023-02-20T11:51:29.913Z,20.77
2023-02-20T11:54:34.089Z,20.74
2023-02-20T11:57:44.417Z,20.69
2023-02-20T12:00:48.525Z,20.71
2023-02-20T12:03:56.168Z,20.63
2023-02-20T12:06:59.107Z,20.66
2023-02-20T12:10:06.234Z,20.66
2023-02-20T12:13:13.431Z,20.64
2023-02-20T12:16:31.399Z,20.66
2023-02-20T12:19:40.372Z,20.61
2023-02-20T12:22:46.845Z,20.55
2023-02-20T12:25:57.147Z,20.54
2023-02-20T12:29:05.564Z,20.52
2023-02-20T12:32:15.937Z,20.48
2023-02-20T12:35:36.731Z,20.50
2023-02-20T12:38:44.866Z,20.60
2023-02-20T12:41:56.759Z,20.47
2023-02-20T12:45:10.289Z,20.59
2023-02-20T12:48:24.204Z,20.54
2023-02-20T12:51:33.885Z,20.43
2023-02-20T12:54:44.057Z,20.37
2023-02-20T12:57:52.468Z,20.36
2023-02-20T13:00:56.186Z,20.33
2023-02-20T13:04:04.459Z,20.32
2023-02-20T13:07:09.930Z,20.26
2023-02-20T13:10:15.698Z,20.19
2023-02-20T13:13:20.476Z,20.22
2023-02-20T13:16:25.860Z,20.18
2023-02-20T13:19:32.217Z,20.18
2023-02-20T13:22:38.283Z,20.16
2023-02-20T13:25:44.635Z,20.17
2023-02-20T13:28:48.872Z,20.24
2023-02-20T13:31:52.658Z,20.27
2023-02-20T13:34:56.962Z,20.37
2023-02-20T13:38:09.997Z,20.46
2023-02-20T13:41:12.875Z,20.59
2023-02-20T13:44:42.432Z,20.69
2023-02-20T13:47:46.653Z,20.75
2023-02-20T13:50:49.488Z,20.80
2023-02-20T13:53:53.840Z,20.89
2023-02-20T13:57:04.881Z,20.86
2023-02-20T14:00:19.590Z,20.95
2023-02-20T14:03:26.231Z,20.99
2023-02-20T14:06:29.573Z,20.98
2023-02-20T14:09:32.442Z,21.05
2023-02-20T14:12:36.783Z,21.04
2023-02-20T14:15:45.949Z,21.24
2023-02-20T14:18:50.302Z,21.16
2023-02-20T14:21:53.206Z,21.19
2023-02-20T14:25:03.569Z,21.08
2023-02-20T14:28:07.809Z,21.18
2023-02-20T14:31:28.483Z,21.17
2023-02-20T14:34:35.965Z,21.20
2023-02-20T14:37:44.958Z,21.25
2023-02-20T14:40:47.908Z,21.22
2023-02-20T14:44:01.135Z,21.24
2023-02-20T14:47:08.870Z,21.21
2023-02-20T14:50:21.322Z,21.25
2023-02-20T14:53:24.121Z,21.30
2023-02-20T14:56:27.134Z,21.30
2023-02-20T14:59:30.988Z,21.31
2023-02-20T15:02:35.011Z,21.30
2023-02-20T15:05:42.372Z,21.34
2023-02-20T15:08:45.258Z,21.37
2023-02-20T15:11:49.596Z,21.38
2023-02-20T15:14:57.510Z,21.38
2023-02-20T15:18:07.567Z,21.38
2023-02-20T15:21:13.020Z,21.41
2023-02-20T15:24:29.741Z,21.40
2023-02-20T15:27:33.470Z,21.39
2023-02-20T15:30:36.646Z,21.43
2023-02-20T15:33:40.821Z,21.43
2023-02-20T15:36:45.126Z,21.41
2023-02-20T15:39:49.355Z,21.44
2023-02-20T15:42:57.007Z,21.43
2023-02-20T15:46:00.450Z,21.42
2023-02-20T15:49:05.052Z,21.44
2023-02-20T15:52:21.432Z,21.41
2023-02-20T15:55:24.364Z,21.60
2023-02-20T15:58:32.609Z,21.53
2023-02-20T16:01:37.149Z,21.55
2023-02-20T16:04:40.008Z,21.52
2023-02-20T16:07:44.400Z,21.51
2023-02-20T16:10:47.248Z,21.52
2023-02-20T16:13:53.156Z,21.53
2023-02-20T16:16:55.977Z,21.51
2023-02-20T16:19:58.853Z,21.53
2023-02-20T16:23:04.787Z,21.55
2023-02-20T16:26:07.688Z,21.54
2023-02-20T16:29:19.857Z,21.55
2023-02-20T16:32:23.918Z,21.55
2023-02-20T16:35:26.779Z,21.58
2023-02-20T16:38:30.989Z,21.57
2023-02-20T16:41:34.146Z,21.56
2023-02-20T16:44:39.117Z,21.59
2023-02-20T16:47:42.678Z,21.63
2023-02-20T16:50:45.572Z,21.58
2023-02-20T16:53:49.880Z,21.80
2023-02-20T16:56:52.775Z,21.73
2023-02-20T16:59:56.596Z,21.58
2023-02-20T17:02:59.644Z,21.60
2023-02-20T17:06:02.495Z,21.61
2023-02-20T17:09:06.650Z,21.60
2023-02-20T17:12:09.514Z,21.66
2023-02-20T17:15:13.020Z,21.68
2023-02-20T17:18:16.194Z,21.65
2023-02-20T17:21:18.972Z,21.61
2023-02-20T17:24:23.303Z,21.56
2023-02-20T17:27:26.119Z,21.42
2023-02-20T17:30:29.001Z,21.60
2023-02-20T17:33:31.851Z,21.51
2023-02-20T17:36:34.640Z,21.47
2023-02-20T17:39:38.795Z,21.41
2023-02-20T17:42:41.549Z,21.35
2023-02-20T17:45:44.288Z,21.28
2023-02-20T17:48:48.028Z,21.16
2023-02-20T17:51:51.886Z,21.16
2023-02-20T17:54:56.400Z,21.15
2023-02-20T17:57:59.145Z,21.07
2023-02-20T18:01:01.946Z,21.00
2023-02-20T18:04:06.036Z,21.08
2023-02-20T18:07:09.273Z,21.05
2023-02-20T18:10:13.381Z,21.03
2023-02-20T18:13:16.156Z,21.00
2023-02-20T18:16:18.956Z,20.97
2023-02-20T18:19:24.191Z,21.00
2023-02-20T18:22:26.954Z,21.14
2023-02-20T18:25:40.069Z,21.21
2023-02-20T18:28:43.596Z,21.25
2023-02-20T18:31:47.003Z,21.26
2023-02-20T18:34:49.896Z,21.34
2023-02-20T18:37:52.643Z,21.31
2023-02-20T18:40:56.885Z,21.32
2023-02-20T18:43:59.738Z,21.28
2023-02-20T18:47:02.589Z,21.25
2023-02-20T18:50:05.494Z,21.18
2023-02-20T18:53:09.902Z,21.20
2023-02-20T18:56:14.291Z,21.14
2023-02-20T18:59:17.407Z,21.05
2023-02-20T19:02:20.213Z,20.99
2023-02-20T19:05:23.470Z,20.98
2023-02-20T19:08:26.245Z,21.00
2023-02-20T19:11:30.720Z,20.87
2023-02-20T19:14:33.817Z,20.90
2023-02-20T19:17:37.026Z,20.95
2023-02-20T19:20:39.786Z,20.93
2023-02-20T19:23:43.662Z,20.93
2023-02-20T19:26:47.949Z,20.95
2023-02-20T19:29:50.917Z,20.95
2023-02-20T19:32:53.731Z,20.99
2023-02-20T19:35:56.524Z,20.95
2023-02-20T19:38:59.272Z,20.95
2023-02-20T19:42:04.218Z,20.92
2023-02-20T19:45:09.148Z,20.92
2023-02-20T19:48:13.068Z,21.00
2023-02-20T19:51:18.167Z,20.90
2023-02-20T19:54:22.656Z,20.75
2023-02-20T19:57:27.251Z,20.72
2023-02-20T20:00:30.458Z,20.70
2023-02-20T20:03:34.329Z,20.61
2023-02-20T20:06:38.269Z,20.64
2023-02-20T20:09:44.750Z,20.57
2023-02-20T20:12:50.350Z,20.48
2023-02-20T20:15:54.148Z,20.46
2023-02-20T20:18:58.906Z,20.43
2023-02-20T20:22:02.915Z,20.45
2023-02-20T20:25:07.796Z,20.36
2023-02-20T20:28:15.217Z,20.46
2023-02-20T20:31:19.779Z,20.50
2023-02-20T20:34:22.596Z,20.55
2023-02-20T20:37:28.295Z,20.63
2023-02-20T20:40:31.062Z,20.73
2023-02-20T20:43:35.424Z,20.83
2023-02-20T20:46:38.234Z,20.88
2023-02-20T20:49:41.065Z,20.92
2023-02-20T20:52:43.884Z,20.97
2023-02-20T20:55:46.807Z,20.98
2023-02-20T20:58:51.266Z,21.03
2023-02-20T21:01:54.158Z,21.10
2023-02-20T21:05:09.368Z,21.11
2023-02-20T21:08:12.827Z,21.15
2023-02-20T21:11:17.143Z,21.18
2023-02-20T21:14:22.533Z,21.19
2023-02-20T21:17:25.282Z,21.18
2023-02-20T21:20:29.510Z,21.24
2023-02-20T21:23:32.366Z,21.20
2023-02-20T21:26:38.021Z,21.28
2023-02-20T21:29:44.718Z,21.29
2023-02-20T21:32:47.663Z,21.29
2023-02-20T21:35:50.429Z,21.28
2023-02-20T21:38:53.348Z,21.32
2023-02-20T21:42:13.669Z,21.32
2023-02-20T21:45:18.163Z,21.30
2023-02-20T21:48:20.955Z,21.33
2023-02-20T21:51:23.686Z,21.30
2023-02-20T21:54:27.602Z,21.36
2023-02-20T21:57:30.393Z,21.31
2023-02-20T22:00:33.421Z,21.31
2023-02-20T22:03:35.022Z,21.38
2023-02-20T22:06:36.785Z,21.30
2023-02-20T22:09:57.375Z,21.36
2023-02-20T22:13:17.650Z,21.49
2023-02-20T22:16:39.175Z,21.63
2023-02-20T22:19:59.172Z,21.59
2023-02-20T22:23:19.118Z,21.66
2023-02-20T22:26:39.723Z,21.62
2023-02-20T22:30:00.078Z,21.67
2023-02-20T22:33:21.574Z,21.73
2023-02-20T22:36:42.712Z,21.70
2023-02-20T22:40:03.063Z,21.73
2023-02-20T22:43:23.685Z,21.67
2023-02-20T22:46:44.261Z,21.71
2023-02-20T22:50:05.968Z,21.67
2023-02-20T22:53:26.383Z,21.67
2023-02-20T22:56:46.331Z,21.67
2023-02-20T23:00:06.601Z,21.69
2023-02-20T23:03:26.925Z,21.65
2023-02-20T23:06:48.460Z,21.70
2023-02-20T23:10:09.037Z,21.69
2023-02-20T23:13:29.559Z,21.67
2023-02-20T23:16:49.422Z,21.70
2023-02-20T23:20:09.863Z,21.69
2023-02-20T23:23:31.885Z,21.72
2023-02-20T23:26:52.446Z,21.72
2023-02-20T23:30:12.892Z,21.70
2023-02-20T23:33:33.335Z,21.77
2023-02-20T23:36:53.861Z,21.70
2023-02-20T23:40:19.116Z,21.77
2023-02-20T23:43:41.693Z,21.78
2023-02-20T23:47:02.667Z,21.72
2023-02-20T23:50:23.073Z,21.80
2023-02-20T23:53:43.412Z,21.79
2023-02-20T23:57:05.037Z,21.76
